sensor_id;sensor_type;location;lat;lon;timestamp;pressure;altitude;pressure_sealevel;temperature;humidity
12172;BME280;6149;52.418;13.668;2024-03-17T00:02:04;101723.03;;;4.44;100.00
12172;BME280;6149;52.418;13.668;2024-03-17T00:04:30;101727.25;;;4.55;100.00
12172;BME280;6149;52.418;13.668;2024-03-17T00:06:55;101724.84;;;4.39;100.00
12172;BME280;6149;52.418;13.668;2024-03-17T00:09:20;101730.06;;;4.40;100.00
12172;BME280;6149;52.418;13.668;2024-03-17T00:11:46;101729.22;;;4.36;100.00
12172;BME280;6149;52.418;13.668;2024-03-17T00:14:11;101726.66;;;4.30;100.00
12172;BME280;6149;52.418;13.668;2024-03-17T00:16:37;101733.66;;;4.28;100.00
12172;BME280;6149;52.418;13.668;2024-03-17T00:19:03;101736.28;;;4.28;100.00
12172;BME280;6149;52.418;13.668;2024-03-17T00:21:28;101738.09;;;4.19;100.00
12172;BME280;6149;52.418;13.668;2024-03-17T00:23:54;101727.66;;;4.14;100.00
12172;BME280;6149;52.418;13.668;2024-03-17T00:26:19;101729.31;;;4.26;100.00
12172;BME280;6149;52.418;13.668;2024-03-17T00:28:46;101724.97;;;4.22;100.00
12172;BME280;6149;52.418;13.668;2024-03-17T00:31:13;101728.50;;;4.19;100.00
12172;BME280;6149;52.418;13.668;2024-03-17T00:33:40;101727.59;;;4.22;100.00
12172;BME280;6149;52.418;13.668;2024-03-17T00:36:06;101730.28;;;4.14;100.00
12172;BME280;6149;52.418;13.668;2024-03-17T00:38:31;101721.56;;;4.14;100.00
12172;BME280;6149;52.418;13.668;2024-03-17T00:40:57;101726.81;;;4.09;100.00
12172;BME280;6149;52.418;13.668;2024-03-17T00:43:22;101727.69;;;4.11;100.00
12172;BME280;6149;52.418;13.668;2024-03-17T00:45:53;101730.28;;;4.11;100.00
12172;BME280;6149;52.418;13.668;2024-03-17T00:48:19;101738.13;;;4.13;100.00
12172;BME280;6149;52.418;13.668;2024-03-17T00:50:45;101739.88;;;4.15;100.00
12172;BME280;6149;52.418;13.668;2024-03-17T00:53:11;101732.97;;;4.07;100.00
12172;BME280;6149;52.418;13.668;2024-03-17T00:55:36;101735.63;;;4.02;100.00
12172;BME280;6149;52.418;13.668;2024-03-17T00:58:02;101732.13;;;4.06;100.00
12172;BME280;6149;52.418;13.668;2024-03-17T01:00:28;101737.38;;;4.01;100.00
12172;BME280;6149;52.418;13.668;2024-03-17T01:02:53;101733.91;;;4.01;100.00
12172;BME280;6149;52.418;13.668;2024-03-17T01:05:19;101726.06;;;3.98;100.00
12172;BME280;6149;52.418;13.668;2024-03-17T01:07:44;101736.50;;;4.02;100.00
12172;BME280;6149;52.418;13.668;2024-03-17T01:10:12;101731.28;;;4.02;100.00
12172;BME280;6149;52.418;13.668;2024-03-17T01:12:37;101730.41;;;3.99;100.00
12172;BME280;6149;52.418;13.668;2024-03-17T01:15:06;101727.81;;;3.97;100.00
12172;BME280;6149;52.418;13.668;2024-03-17T01:17:32;101732.16;;;4.00;100.00
12172;BME280;6149;52.418;13.668;2024-03-17T01:19:58;101737.44;;;3.94;100.00
12172;BME280;6149;52.418;13.668;2024-03-17T01:22:23;101739.16;;;3.95;100.00
12172;BME280;6149;52.418;13.668;2024-03-17T01:24:49;101729.34;;;4.20;100.00
12172;BME280;6149;52.418;13.668;2024-03-17T01:27:14;101738.22;;;4.08;100.00
12172;BME280;6149;52.418;13.668;2024-03-17T01:29:41;101730.44;;;3.96;100.00
12172;BME280;6149;52.418;13.668;2024-03-17T01:32:08;101742.66;;;3.94;100.00
12172;BME280;6149;52.418;13.668;2024-03-17T01:34:34;101735.69;;;3.93;100.00
12172;BME280;6149;52.418;13.668;2024-03-17T01:36:59;101731.31;;;3.95;100.00
12172;BME280;6149;52.418;13.668;2024-03-17T01:39:25;101743.59;;;3.84;100.00
12172;BME280;6149;52.418;13.668;2024-03-17T01:41:50;101741.84;;;3.87;100.00
12172;BME280;6149;52.418;13.668;2024-03-17T01:44:26;101735.78;;;3.82;100.00
12172;BME280;6149;52.418;13.668;2024-03-17T01:46:53;101735.75;;;3.85;100.00
12172;BME280;6149;52.418;13.668;2024-03-17T01:49:21;101730.59;;;3.75;100.00
12172;BME280;6149;52.418;13.668;2024-03-17T01:51:48;101727.06;;;3.79;100.00
12172;BME280;6149;52.418;13.668;2024-03-17T01:54:14;101721.00;;;3.75;100.00
12172;BME280;6149;52.418;13.668;2024-03-17T01:56:41;101720.19;;;3.68;100.00
12172;BME280;6149;52.418;13.668;2024-03-17T01:59:08;101714.97;;;3.68;100.00
12172;BME280;6149;52.418;13.668;2024-03-17T02:01:37;101715.03;;;3.56;100.00
12172;BME280;6149;52.418;13.668;2024-03-17T02:04:04;101722.91;;;3.53;100.00
12172;BME280;6149;52.418;13.668;2024-03-17T02:06:30;101729.88;;;3.53;100.00
12172;BME280;6149;52.418;13.668;2024-03-17T02:08:56;101733.34;;;3.55;100.00
12172;BME280;6149;52.418;13.668;2024-03-17T02:11:32;101731.63;;;3.48;100.00
12172;BME280;6149;52.418;13.668;2024-03-17T02:13:59;101732.47;;;3.57;100.00
12172;BME280;6149;52.418;13.668;2024-03-17T02:16:26;101733.34;;;3.55;100.00
12172;BME280;6149;52.418;13.668;2024-03-17T02:18:55;101730.78;;;3.43;100.00
12172;BME280;6149;52.418;13.668;2024-03-17T02:21:22;101734.25;;;3.46;100.00
12172;BME280;6149;52.418;13.668;2024-03-17T02:23:48;101739.50;;;3.45;100.00
12172;BME280;6149;52.418;13.668;2024-03-17T02:26:14;101743.03;;;3.36;100.00
12172;BME280;6149;52.418;13.668;2024-03-17T02:28:43;101737.75;;;3.47;100.00
12172;BME280;6149;52.418;13.668;2024-03-17T02:31:12;101736.91;;;3.42;100.00
12172;BME280;6149;52.418;13.668;2024-03-17T02:33:38;101736.09;;;3.32;100.00
12172;BME280;6149;52.418;13.668;2024-03-17T02:36:05;101729.94;;;3.38;100.00
12172;BME280;6149;52.418;13.668;2024-03-17T02:38:34;101739.59;;;3.28;100.00
12172;BME280;6149;52.418;13.668;2024-03-17T02:41:18;101737.88;;;3.27;100.00
12172;BME280;6149;52.418;13.668;2024-03-17T02:43:44;101733.44;;;3.36;100.00
12172;BME280;6149;52.418;13.668;2024-03-17T02:46:14;101737.00;;;3.23;100.00
12172;BME280;6149;52.418;13.668;2024-03-17T02:52:21;101731.78;;;3.22;100.00
12172;BME280;6149;52.418;13.668;2024-03-17T02:54:47;101739.66;;;3.13;100.00
12172;BME280;6149;52.418;13.668;2024-03-17T02:57:12;101737.06;;;3.14;100.00
12172;BME280;6149;52.418;13.668;2024-03-17T02:59:37;101733.59;;;3.09;100.00
12172;BME280;6149;52.418;13.668;2024-03-17T03:02:03;101736.22;;;3.06;100.00
12172;BME280;6149;52.418;13.668;2024-03-17T03:04:29;101737.06;;;3.10;100.00
12172;BME280;6149;52.418;13.668;2024-03-17T03:06:55;101741.41;;;3.12;100.00
12172;BME280;6149;52.418;13.668;2024-03-17T03:09:20;101733.59;;;3.01;100.00
12172;BME280;6149;52.418;13.668;2024-03-17T03:11:50;101743.19;;;3.04;100.00
12172;BME280;6149;52.418;13.668;2024-03-17T03:14:17;101737.97;;;3.02;100.00
12172;BME280;6149;52.418;13.668;2024-03-17T03:16:42;101737.16;;;2.94;100.00
12172;BME280;6149;52.418;13.668;2024-03-17T03:19:09;101744.13;;;2.91;100.00
12172;BME280;6149;52.418;13.668;2024-03-17T03:21:34;101745.00;;;2.85;100.00
12172;BME280;6149;52.418;13.668;2024-03-17T03:24:00;101738.91;;;2.83;100.00
12172;BME280;6149;52.418;13.668;2024-03-17T03:26:25;101736.31;;;2.82;100.00
12172;BME280;6149;52.418;13.668;2024-03-17T03:28:50;101734.56;;;2.84;100.00
12172;BME280;6149;52.418;13.668;2024-03-17T03:31:16;101734.56;;;2.81;100.00
12172;BME280;6149;52.418;13.668;2024-03-17T03:33:43;101730.22;;;2.86;100.00
12172;BME280;6149;52.418;13.668;2024-03-17T03:36:13;101740.69;;;2.72;100.00
12172;BME280;6149;52.418;13.668;2024-03-17T03:38:39;101749.38;;;2.68;100.00
12172;BME280;6149;52.418;13.668;2024-03-17T03:41:09;101745.91;;;2.64;100.00
12172;BME280;6149;52.418;13.668;2024-03-17T03:43:38;101741.59;;;2.57;100.00
12172;BME280;6149;52.418;13.668;2024-03-17T03:46:03;101738.94;;;2.73;100.00
12172;BME280;6149;52.418;13.668;2024-03-17T03:48:29;101744.16;;;2.66;100.00
12172;BME280;6149;52.418;13.668;2024-03-17T03:50:55;101747.66;;;2.65;100.00
12172;BME280;6149;52.418;13.668;2024-03-17T03:53:20;101750.25;;;2.67;100.00
12172;BME280;6149;52.418;13.668;2024-03-17T03:55:46;101749.41;;;2.62;100.00
12172;BME280;6149;52.418;13.668;2024-03-17T03:58:11;101745.03;;;2.70;100.00
12172;BME280;6149;52.418;13.668;2024-03-17T04:00:38;101740.69;;;2.63;100.00
12172;BME280;6149;52.418;13.668;2024-03-17T04:03:05;101745.97;;;2.55;100.00
12172;BME280;6149;52.418;13.668;2024-03-17T04:05:30;101749.44;;;2.54;100.00
12172;BME280;6149;52.418;13.668;2024-03-17T04:07:56;101744.22;;;2.53;100.00
12172;BME280;6149;52.418;13.668;2024-03-17T04:10:21;101744.22;;;2.48;100.00
12172;BME280;6149;52.418;13.668;2024-03-17T04:12:48;101741.63;;;2.50;100.00
12172;BME280;6149;52.418;13.668;2024-03-17T04:15:13;101746.84;;;2.48;100.00
12172;BME280;6149;52.418;13.668;2024-03-17T04:17:39;101745.09;;;2.46;100.00
12172;BME280;6149;52.418;13.668;2024-03-17T04:20:05;101740.75;;;2.42;100.00
12172;BME280;6149;52.418;13.668;2024-03-17T04:22:33;101742.47;;;2.53;100.00
12172;BME280;6149;52.418;13.668;2024-03-17T04:24:59;101746.84;;;2.47;100.00
12172;BME280;6149;52.418;13.668;2024-03-17T04:27:27;101747.72;;;2.44;100.00
12172;BME280;6149;52.418;13.668;2024-03-17T04:29:54;101752.06;;;2.41;100.00
12172;BME280;6149;52.418;13.668;2024-03-17T04:32:22;101761.63;;;2.37;100.00
12172;BME280;6149;52.418;13.668;2024-03-17T04:34:48;101756.41;;;2.39;100.00
12172;BME280;6149;52.418;13.668;2024-03-17T04:37:14;101758.16;;;2.41;100.00
12172;BME280;6149;52.418;13.668;2024-03-17T04:39:40;101754.66;;;2.34;100.00
12172;BME280;6149;52.418;13.668;2024-03-17T04:42:08;101759.88;;;2.41;100.00
12172;BME280;6149;52.418;13.668;2024-03-17T04:44:34;101765.09;;;2.41;100.00
12172;BME280;6149;52.418;13.668;2024-03-17T04:47:00;101757.28;;;2.42;100.00
12172;BME280;6149;52.418;13.668;2024-03-17T04:49:26;101763.38;;;2.43;100.00
12172;BME280;6149;52.418;13.668;2024-03-17T04:51:51;101765.97;;;2.37;100.00
12172;BME280;6149;52.418;13.668;2024-03-17T04:54:16;101769.47;;;2.32;100.00
12172;BME280;6149;52.418;13.668;2024-03-17T04:56:42;101769.47;;;2.39;100.00
12172;BME280;6149;52.418;13.668;2024-03-17T04:59:07;101773.81;;;2.44;100.00
12172;BME280;6149;52.418;13.668;2024-03-17T05:01:32;101770.34;;;2.36;100.00
12172;BME280;6149;52.418;13.668;2024-03-17T05:04:04;101774.69;;;2.28;100.00
12172;BME280;6149;52.418;13.668;2024-03-17T05:06:29;101777.31;;;2.22;100.00
12172;BME280;6149;52.418;13.668;2024-03-17T05:08:55;101777.28;;;2.23;100.00
12172;BME280;6149;52.418;13.668;2024-03-17T05:11:21;101771.19;;;2.24;100.00
12172;BME280;6149;52.418;13.668;2024-03-17T05:13:46;101778.16;;;2.30;100.00
12172;BME280;6149;52.418;13.668;2024-03-17T05:16:11;101770.31;;;2.25;100.00
12172;BME280;6149;52.418;13.668;2024-03-17T05:18:37;101764.25;;;2.23;100.00
12172;BME280;6149;52.418;13.668;2024-03-17T05:21:07;101771.22;;;2.18;100.00
12172;BME280;6149;52.418;13.668;2024-03-17T05:23:35;101770.34;;;2.19;100.00
12172;BME280;6149;52.418;13.668;2024-03-17T05:26:02;101772.97;;;2.16;100.00
12172;BME280;6149;52.418;13.668;2024-03-17T05:28:31;101770.34;;;2.16;100.00
12172;BME280;6149;52.418;13.668;2024-03-17T05:30:57;101783.41;;;2.13;100.00
12172;BME280;6149;52.418;13.668;2024-03-17T05:33:24;101772.97;;;2.10;100.00
12172;BME280;6149;52.418;13.668;2024-03-17T05:35:57;101788.59;;;2.09;100.00
12172;BME280;6149;52.418;13.668;2024-03-17T05:38:27;101796.44;;;2.09;100.00
12172;BME280;6149;52.418;13.668;2024-03-17T05:40:58;101797.28;;;2.06;100.00
12172;BME280;6149;52.418;13.668;2024-03-17T05:43:37;101800.78;;;2.13;100.00
12172;BME280;6149;52.418;13.668;2024-03-17T05:46:07;101801.63;;;2.04;100.00
12172;BME280;6149;52.418;13.668;2024-03-17T05:48:36;101806.00;;;2.05;100.00
12172;BME280;6149;52.418;13.668;2024-03-17T05:51:04;101801.63;;;1.99;100.00
12172;BME280;6149;52.418;13.668;2024-03-17T05:53:30;101803.38;;;2.00;100.00
12172;BME280;6149;52.418;13.668;2024-03-17T05:55:58;101806.84;;;2.03;100.00
12172;BME280;6149;52.418;13.668;2024-03-17T05:58:24;101810.34;;;2.05;100.00
12172;BME280;6149;52.418;13.668;2024-03-17T06:00:50;101803.38;;;2.02;100.00
12172;BME280;6149;52.418;13.668;2024-03-17T06:03:15;101804.25;;;2.01;100.00
12172;BME280;6149;52.418;13.668;2024-03-17T06:05:40;101807.72;;;2.05;100.00
12172;BME280;6149;52.418;13.668;2024-03-17T06:08:06;101812.94;;;2.05;100.00
12172;BME280;6149;52.418;13.668;2024-03-17T06:10:35;101811.22;;;2.07;100.00
12172;BME280;6149;52.418;13.668;2024-03-17T06:13:01;101810.34;;;2.14;100.00
12172;BME280;6149;52.418;13.668;2024-03-17T06:15:27;101816.44;;;2.16;100.00
12172;BME280;6149;52.418;13.668;2024-03-17T06:17:53;101824.25;;;2.23;100.00
12172;BME280;6149;52.418;13.668;2024-03-17T06:20:20;101828.63;;;2.40;100.00
12172;BME280;6149;52.418;13.668;2024-03-17T06:22:46;101831.22;;;2.65;100.00
12172;BME280;6149;52.418;13.668;2024-03-17T06:25:12;101829.44;;;2.89;100.00
12172;BME280;6149;52.418;13.668;2024-03-17T06:27:38;101837.22;;;3.18;100.00
12172;BME280;6149;52.418;13.668;2024-03-17T06:30:04;101840.66;;;3.27;100.00
12172;BME280;6149;52.418;13.668;2024-03-17T06:32:31;101829.34;;;3.30;100.00
12172;BME280;6149;52.418;13.668;2024-03-17T06:34:57;101852.81;;;3.34;100.00
12172;BME280;6149;52.418;13.668;2024-03-17T06:37:23;101849.38;;;3.32;100.00
12172;BME280;6149;52.418;13.668;2024-03-17T06:39:49;101847.56;;;3.42;100.00
12172;BME280;6149;52.418;13.668;2024-03-17T06:42:15;101844.91;;;3.53;100.00
12172;BME280;6149;52.418;13.668;2024-03-17T06:44:40;101851.00;;;3.58;100.00
12172;BME280;6149;52.418;13.668;2024-03-17T06:47:06;101854.47;;;3.61;100.00
12172;BME280;6149;52.418;13.668;2024-03-17T06:49:31;101855.31;;;3.69;100.00
12172;BME280;6149;52.418;13.668;2024-03-17T06:51:56;101857.88;;;3.77;100.00
12172;BME280;6149;52.418;13.668;2024-03-17T06:54:22;101860.44;;;3.89;100.00
12172;BME280;6149;52.418;13.668;2024-03-17T06:56:48;101863.94;;;3.88;100.00
12172;BME280;6149;52.418;13.668;2024-03-17T06:59:13;101863.03;;;3.95;100.00
12172;BME280;6149;52.418;13.668;2024-03-17T07:01:38;101876.94;;;4.02;100.00
12172;BME280;6149;52.418;13.668;2024-03-17T07:04:03;101876.84;;;4.13;100.00
12172;BME280;6149;52.418;13.668;2024-03-17T07:06:29;101879.44;;;4.17;100.00
12172;BME280;6149;52.418;13.668;2024-03-17T07:08:54;101883.78;;;4.24;100.00
12172;BME280;6149;52.418;13.668;2024-03-17T07:11:20;101880.25;;;4.31;100.00
12172;BME280;6149;52.418;13.668;2024-03-17T07:13:48;101880.16;;;4.44;100.00
12172;BME280;6149;52.418;13.668;2024-03-17T07:16:16;101888.81;;;4.52;100.00
12172;BME280;6149;52.418;13.668;2024-03-17T07:18:41;101882.63;;;4.62;100.00
12172;BME280;6149;52.418;13.668;2024-03-17T07:21:08;101888.66;;;4.73;100.00
12172;BME280;6149;52.418;13.668;2024-03-17T07:23:35;101886.00;;;4.76;100.00
12172;BME280;6149;52.418;13.668;2024-03-17T07:26:02;101899.91;;;4.83;100.00
12172;BME280;6149;52.418;13.668;2024-03-17T07:28:30;101898.84;;;5.03;100.00
12172;BME280;6149;52.418;13.668;2024-03-17T07:30:57;101897.00;;;5.15;100.00
12172;BME280;6149;52.418;13.668;2024-03-17T07:33:24;101905.56;;;5.29;100.00
12172;BME280;6149;52.418;13.668;2024-03-17T07:35:51;101911.66;;;5.31;100.00
12172;BME280;6149;52.418;13.668;2024-03-17T07:38:26;101909.06;;;5.31;100.00
12172;BME280;6149;52.418;13.668;2024-03-17T07:43:32;101908.06;;;5.41;100.00
12172;BME280;6149;52.418;13.668;2024-03-17T07:46:02;101910.69;;;5.43;100.00
12172;BME280;6149;52.418;13.668;2024-03-17T07:48:33;101908.88;;;5.49;100.00
12172;BME280;6149;52.418;13.668;2024-03-17T07:51:01;101919.19;;;5.61;100.00
12172;BME280;6149;52.418;13.668;2024-03-17T07:53:32;101913.91;;;5.66;100.00
12172;BME280;6149;52.418;13.668;2024-03-17T07:58:24;101918.91;;;5.86;100.00
12172;BME280;6149;52.418;13.668;2024-03-17T08:00:51;101908.41;;;5.89;100.00
12172;BME280;6149;52.418;13.668;2024-03-17T08:03:18;101920.50;;;5.99;100.00
12172;BME280;6149;52.418;13.668;2024-03-17T08:05:48;101918.69;;;6.06;100.00
12172;BME280;6149;52.418;13.668;2024-03-17T08:08:15;101923.09;;;6.02;100.00
12172;BME280;6149;52.418;13.668;2024-03-17T08:10:41;101923.78;;;6.18;100.00
12172;BME280;6149;52.418;13.668;2024-03-17T08:13:07;101911.50;;;6.18;100.00
12172;BME280;6149;52.418;13.668;2024-03-17T08:15:34;101919.31;;;6.24;100.00
12172;BME280;6149;52.418;13.668;2024-03-17T08:18:00;101918.19;;;6.39;100.00
12172;BME280;6149;52.418;13.668;2024-03-17T08:20:25;101911.94;;;6.49;100.00
12172;BME280;6149;52.418;13.668;2024-03-17T08:22:51;101921.53;;;6.50;100.00
12172;BME280;6149;52.418;13.668;2024-03-17T08:25:17;101921.34;;;6.64;100.00
12172;BME280;6149;52.418;13.668;2024-03-17T08:27:42;101911.44;;;6.80;100.00
12172;BME280;6149;52.418;13.668;2024-03-17T08:30:11;101913.13;;;6.84;100.00
12172;BME280;6149;52.418;13.668;2024-03-17T08:32:36;101913.00;;;6.91;100.00
12172;BME280;6149;52.418;13.668;2024-03-17T08:35:02;101921.69;;;6.96;100.00
12172;BME280;6149;52.418;13.668;2024-03-17T08:37:27;101911.75;;;7.12;100.00
12172;BME280;6149;52.418;13.668;2024-03-17T08:39:53;101917.81;;;7.16;100.00
12172;BME280;6149;52.418;13.668;2024-03-17T08:42:18;101913.66;;;7.04;100.00
12172;BME280;6149;52.418;13.668;2024-03-17T08:44:46;101922.16;;;7.18;100.00
12172;BME280;6149;52.418;13.668;2024-03-17T08:47:12;101923.19;;;7.10;100.00
12172;BME280;6149;52.418;13.668;2024-03-17T08:49:37;101925.75;;;7.13;100.00
12172;BME280;6149;52.418;13.668;2024-03-17T08:52:03;101918.72;;;7.15;100.00
12172;BME280;6149;52.418;13.668;2024-03-17T08:54:28;101916.91;;;7.18;100.00
12172;BME280;6149;52.418;13.668;2024-03-17T08:56:54;101927.53;;;7.11;100.00
12172;BME280;6149;52.418;13.668;2024-03-17T08:59:19;101926.50;;;7.21;100.00
12172;BME280;6149;52.418;13.668;2024-03-17T09:01:44;101928.22;;;7.22;100.00
12172;BME280;6149;52.418;13.668;2024-03-17T09:04:10;101938.63;;;7.29;100.00
12172;BME280;6149;52.418;13.668;2024-03-17T09:06:36;101937.03;;;7.21;100.00
12172;BME280;6149;52.418;13.668;2024-03-17T09:09:02;101931.66;;;7.27;100.00
12172;BME280;6149;52.418;13.668;2024-03-17T09:11:28;101930.78;;;7.26;100.00
12172;BME280;6149;52.418;13.668;2024-03-17T09:13:54;101937.03;;;7.19;100.00
12172;BME280;6149;52.418;13.668;2024-03-17T09:16:20;101926.69;;;7.10;100.00
12172;BME280;6149;52.418;13.668;2024-03-17T09:18:48;101930.91;;;7.19;100.00
12172;BME280;6149;52.418;13.668;2024-03-17T09:21:14;101930.44;;;7.43;100.00
12172;BME280;6149;52.418;13.668;2024-03-17T09:23:41;101930.94;;;7.63;100.00
12172;BME280;6149;52.418;13.668;2024-03-17T09:26:08;101924.41;;;7.83;100.00
12172;BME280;6149;52.418;13.668;2024-03-17T09:28:35;101933.31;;;7.77;100.00
12172;BME280;6149;52.418;13.668;2024-03-17T09:31:01;101927.44;;;7.64;100.00
12172;BME280;6149;52.418;13.668;2024-03-17T09:33:29;101933.84;;;7.50;100.00
12172;BME280;6149;52.418;13.668;2024-03-17T09:36:01;101929.91;;;7.72;100.00
12172;BME280;6149;52.418;13.668;2024-03-17T09:38:32;101926.44;;;8.12;100.00
12172;BME280;6149;52.418;13.668;2024-03-17T09:40:58;101929.66;;;8.24;100.00
12172;BME280;6149;52.418;13.668;2024-03-17T09:43:26;101928.63;;;8.31;100.00
12172;BME280;6149;52.418;13.668;2024-03-17T09:45:53;101925.19;;;8.66;100.00
12172;BME280;6149;52.418;13.668;2024-03-17T09:48:22;101918.63;;;8.84;100.00
12172;BME280;6149;52.418;13.668;2024-03-17T09:50:56;101925.44;;;8.91;98.57
12172;BME280;6149;52.418;13.668;2024-03-17T09:56:13;101934.06;;;8.64;98.41
12172;BME280;6149;52.418;13.668;2024-03-17T09:58:44;101921.19;;;8.52;99.06
12172;BME280;6149;52.418;13.668;2024-03-17T10:01:10;101921.28;;;8.47;98.05
12172;BME280;6149;52.418;13.668;2024-03-17T10:06:24;101923.13;;;9.15;94.38
12172;BME280;6149;52.418;13.668;2024-03-17T10:08:55;101916.38;;;9.03;87.93
12172;BME280;6149;52.418;13.668;2024-03-17T10:11:35;101914.41;;;8.77;91.68
12172;BME280;6149;52.418;13.668;2024-03-17T10:14:07;101914.50;;;8.73;92.20
12172;BME280;6149;52.418;13.668;2024-03-17T10:16:34;101912.63;;;8.78;94.49
12172;BME280;6149;52.418;13.668;2024-03-17T10:19:15;101902.91;;;8.80;95.70
12172;BME280;6149;52.418;13.668;2024-03-17T10:21:47;101918.47;;;8.90;93.92
12172;BME280;6149;52.418;13.668;2024-03-17T10:24:23;101907.25;;;8.82;95.09
12172;BME280;6149;52.418;13.668;2024-03-17T10:26:57;101918.53;;;8.52;93.52
12172;BME280;6149;52.418;13.668;2024-03-17T10:29:30;101924.19;;;8.35;94.09
12172;BME280;6149;52.418;13.668;2024-03-17T10:31:57;101917.16;;;8.35;95.24
12172;BME280;6149;52.418;13.668;2024-03-17T10:34:26;101913.47;;;8.80;94.67
12172;BME280;6149;52.418;13.668;2024-03-17T10:37:08;101904.53;;;9.19;92.38
12172;BME280;6149;52.418;13.668;2024-03-17T10:39:42;101907.81;;;9.60;87.24
12172;BME280;6149;52.418;13.668;2024-03-17T10:42:10;101916.84;;;9.51;85.22
12172;BME280;6149;52.418;13.668;2024-03-17T10:44:38;101913.63;;;9.40;86.81
12172;BME280;6149;52.418;13.668;2024-03-17T10:47:05;101920.88;;;9.32;84.75
12172;BME280;6149;52.418;13.668;2024-03-17T10:49:36;101918.81;;;9.43;85.24
12172;BME280;6149;52.418;13.668;2024-03-17T10:52:04;101919.66;;;9.76;81.85
12172;BME280;6149;52.418;13.668;2024-03-17T10:54:34;101916.63;;;9.90;77.75
12172;BME280;6149;52.418;13.668;2024-03-17T10:57:27;101923.81;;;9.85;78.88
12172;BME280;6149;52.418;13.668;2024-03-17T10:59:58;101917.34;;;9.95;81.05
12172;BME280;6149;52.418;13.668;2024-03-17T11:02:28;101924.88;;;9.78;79.18
12172;BME280;6149;52.418;13.668;2024-03-17T11:04:59;101925.19;;;9.67;77.82
12172;BME280;6149;52.418;13.668;2024-03-17T11:07:26;101931.78;;;9.52;77.30
12172;BME280;6149;52.418;13.668;2024-03-17T11:09:54;101934.22;;;9.27;79.59
12172;BME280;6149;52.418;13.668;2024-03-17T11:12:43;101931.19;;;9.09;80.30
12172;BME280;6149;52.418;13.668;2024-03-17T11:17:51;101923.91;;;8.84;81.67
12172;BME280;6149;52.418;13.668;2024-03-17T11:20:24;101924.13;;;8.75;83.23
12172;BME280;6149;52.418;13.668;2024-03-17T11:22:56;101919.19;;;8.95;88.48
12172;BME280;6149;52.418;13.668;2024-03-17T11:27:55;101924.09;;;9.11;86.05
12172;BME280;6149;52.418;13.668;2024-03-17T11:30:41;101911.78;;;9.44;81.35
12172;BME280;6149;52.418;13.668;2024-03-17T11:38:57;101910.59;;;10.44;77.67
12172;BME280;6149;52.418;13.668;2024-03-17T11:46:44;101901.81;;;10.96;67.98
12172;BME280;6149;52.418;13.668;2024-03-17T11:49:18;101904.56;;;10.93;66.50
12172;BME280;6149;52.418;13.668;2024-03-17T11:51:48;101906.25;;;10.69;66.59
12172;BME280;6149;52.418;13.668;2024-03-17T11:54:20;101905.09;;;10.50;64.18
12172;BME280;6149;52.418;13.668;2024-03-17T11:56:48;101905.09;;;10.50;65.22
12172;BME280;6149;52.418;13.668;2024-03-17T11:59:15;101899.44;;;10.62;65.65
12172;BME280;6149;52.418;13.668;2024-03-17T12:01:48;101906.34;;;10.66;67.48
12172;BME280;6149;52.418;13.668;2024-03-17T12:04:16;101909.88;;;10.66;66.57
12172;BME280;6149;52.418;13.668;2024-03-17T12:06:47;101904.81;;;10.59;69.59
12172;BME280;6149;52.418;13.668;2024-03-17T12:09:26;101906.44;;;10.63;66.19
12172;BME280;6149;52.418;13.668;2024-03-17T12:12:11;101890.59;;;10.63;66.12
12172;BME280;6149;52.418;13.668;2024-03-17T12:14:39;101891.34;;;10.66;64.47
12172;BME280;6149;52.418;13.668;2024-03-17T12:17:10;101892.13;;;10.70;64.11
12172;BME280;6149;52.418;13.668;2024-03-17T12:19:37;101887.09;;;10.87;66.09
12172;BME280;6149;52.418;13.668;2024-03-17T12:22:04;101888.69;;;10.93;63.14
12172;BME280;6149;52.418;13.668;2024-03-17T12:24:31;101885.84;;;10.99;62.77
12172;BME280;6149;52.418;13.668;2024-03-17T12:27:03;101887.72;;;10.95;60.68
12172;BME280;6149;52.418;13.668;2024-03-17T12:29:34;101886.91;;;10.93;59.55
12172;BME280;6149;52.418;13.668;2024-03-17T12:32:17;101894.03;;;10.91;58.91
12172;BME280;6149;52.418;13.668;2024-03-17T12:34:45;101879.38;;;10.81;60.66
12172;BME280;6149;52.418;13.668;2024-03-17T12:37:20;101878.19;;;10.90;63.00
12172;BME280;6149;52.418;13.668;2024-03-17T12:40:01;101863.50;;;11.08;62.72
12172;BME280;6149;52.418;13.668;2024-03-17T12:42:28;101858.09;;;11.11;60.57
12172;BME280;6149;52.418;13.668;2024-03-17T12:45:00;101865.22;;;11.09;60.87
12172;BME280;6149;52.418;13.668;2024-03-17T12:47:31;101865.84;;;11.15;60.28
12172;BME280;6149;52.418;13.668;2024-03-17T12:50:00;101871.53;;;11.04;60.95
12172;BME280;6149;52.418;13.668;2024-03-17T12:52:27;101865.44;;;11.02;59.10
12172;BME280;6149;52.418;13.668;2024-03-17T12:55:07;101857.78;;;11.18;60.77
12172;BME280;6149;52.418;13.668;2024-03-17T12:58:05;101867.25;;;11.25;60.84
12172;BME280;6149;52.418;13.668;2024-03-17T13:01:04;101866.88;;;11.36;62.12
12172;BME280;6149;52.418;13.668;2024-03-17T13:03:33;101859.91;;;11.57;61.13
12172;BME280;6149;52.418;13.668;2024-03-17T13:06:00;101872.41;;;11.53;59.88
12172;BME280;6149;52.418;13.668;2024-03-17T13:08:28;101874.97;;;11.31;59.28
12172;BME280;6149;52.418;13.668;2024-03-17T13:10:53;101869.03;;;11.25;60.08
12172;BME280;6149;52.418;13.668;2024-03-17T13:13:19;101866.34;;;11.01;58.59
12172;BME280;6149;52.418;13.668;2024-03-17T13:15:45;101872.66;;;10.97;60.35
12172;BME280;6149;52.418;13.668;2024-03-17T13:18:16;101870.41;;;10.85;62.17
12172;BME280;6149;52.418;13.668;2024-03-17T13:20:46;101867.06;;;10.80;61.38
12172;BME280;6149;52.418;13.668;2024-03-17T13:23:12;101858.66;;;10.94;62.29
12172;BME280;6149;52.418;13.668;2024-03-17T13:25:38;101856.78;;;10.97;60.93